Time;durP1;ratioP1;P1;durP2;ratioP2;P2;SDS_P1;SDS_P2;PMS_P1;PMS_P2;Temp;Humidity;BMP_temperature;BMP_pressure;BME280_temperature;BME280_humidity;BME280_pressure;Samples;Min_cycle;Max_cycle;Signal;HPM_P1;HPM_P2
2022/05/04 00:01:56;;;;;;;;;;;;;;;;;;5028627;28;19925;-58
2022/05/04 00:04:21;;;;;;;;;;;;;;;;;;5005895;28;19921;-58
2022/05/04 00:06:46;;;;;;;;;;;;;;;;;;5008474;28;19978;-57
2022/05/04 00:09:11;;;;;;;;;;;;;;;;;;5011724;28;19929;-58
2022/05/04 00:11:40;;;;;;;;;;;;;;;;;;5029177;28;20498;-57
2022/05/04 00:14:05;;;;;;;;;;;;;;;;;;5027931;28;19927;-57
2022/05/04 00:16:31;;;;;;;;;;;;;;;;;;5028288;28;19921;-57
2022/05/04 00:18:57;;;;;;;;;;;;;;;;;;5030675;28;20010;-59
2022/05/04 00:21:22;;;;;;;;;;;;;;;;;;5027634;28;20341;-59
2022/05/04 00:23:48;;;;;;;;;;;;;;;;;;5029272;28;19916;-58
2022/05/04 00:26:17;;;;;;;;;;;;;;;;;;5026594;28;19926;-59
2022/05/04 00:28:45;;;;;;;;;;;;;;;;;;5006618;28;19921;-58
2022/05/04 00:31:10;;;;;;;;;;;;;;;;;;5006767;28;19927;-58
2022/05/04 00:33:36;;;;;;;;;;;;;;;;;;5007565;28;19916;-58
2022/05/04 00:36:04;;;;;;;;;;;;;;;;;;5008759;28;19932;-58
2022/05/04 00:38:32;;;;;;;;;;;;;;;;;;5029194;28;19929;-58
2022/05/04 00:41:00;;;;;;;;;;;;;;;;;;5025750;28;19920;-58
2022/05/04 00:43:25;;;;;;;;;;;;;;;;;;5009144;28;20018;-58
2022/05/04 00:45:50;;;;;;;;;;;;;;;;;;4994351;28;19928;-59
2022/05/04 00:48:16;;;;;;;;;;;;;;;;;;5028592;28;19921;-59
2022/05/04 00:50:47;;;;;;;;;;;;;;;;;;5031574;28;19920;-59
2022/05/04 00:53:12;;;;;;;;;;;;;;;;;;5030178;28;19942;-59
2022/05/04 00:55:40;;;;;;;;;;;;;;;;;;5027870;28;20334;-58
2022/05/04 01:00:53;;;;;;;;;;;;;;;;;;5005846;28;19923;-59
2022/05/04 01:03:19;;;;;;;;;;;;;;;;;;5001911;28;20364;-58
2022/05/04 01:05:46;;;;;;;;;;;;;;;;;;5030547;28;20006;-59
2022/05/04 01:08:14;;;;;;;;;;;;;;;;;;5024333;28;19938;-60
2022/05/04 01:10:40;;;;;;;;;;;;;;;;;;5018454;28;19935;-58
2022/05/04 01:13:07;;;;;;;;;;;;;;;;;;5013611;28;19916;-59
2022/05/04 01:15:33;;;;;;;;;;;;;;;;;;5012533;28;20947;-58
2022/05/04 01:17:58;;;;;;;;;;;;;;;;;;5025493;28;20037;-59
2022/05/04 01:20:24;;;;;;;;;;;;;;;;;;5020265;28;19962;-59
2022/05/04 01:22:51;;;;;;;;;;;;;;;;;;5030359;28;20390;-59
2022/05/04 01:25:17;;;;;;;;;;;;;;;;;;5029791;28;19916;-59
2022/05/04 01:27:47;;;;;;;;;;;;;;;;;;5028727;28;19924;-59
2022/05/04 01:30:13;;;;;;;;;;;;;;;;;;5010491;28;19968;-59
2022/05/04 01:32:38;;;;;;;;;;;;;;;;;;5029872;28;19922;-57
2022/05/04 01:35:04;;;;;;;;;;;;;;;;;;5011034;28;19920;-59
2022/05/04 01:37:29;;;;;;;;;;;;;;;;;;5006245;28;20540;-59
2022/05/04 01:39:55;;;;;;;;;;;;;;;;;;5012957;28;19932;-59
2022/05/04 01:42:24;;;;;;;;;;;;;;;;;;5029609;28;20401;-59
2022/05/04 01:44:49;;;;;;;;;;;;;;;;;;5027328;28;19997;-59
2022/05/04 01:47:14;;;;;;;;;;;;;;;;;;5009338;28;20267;-60
2022/05/04 01:49:42;;;;;;;;;;;;;;;;;;5028066;28;19932;-58
2022/05/04 01:52:10;;;;;;;;;;;;;;;;;;4996210;28;19920;-59
2022/05/04 01:54:38;;;;;;;;;;;;;;;;;;5029768;28;19955;-58
2022/05/04 01:57:04;;;;;;;;;;;;;;;;;;5011991;28;20383;-59
2022/05/04 01:59:29;;;;;;;;;;;;;;;;;;5012021;28;19924;-59
2022/05/04 02:01:55;;;;;;;;;;;;;;;;;;5027293;28;19921;-58
2022/05/04 02:04:20;;;;;;;;;;;;;;;;;;5028368;28;19925;-58
2022/05/04 02:06:46;;;;;;;;;;;;;;;;;;5012903;28;19924;-59
2022/05/04 02:09:11;;;;;;;;;;;;;;;;;;5024996;28;19920;-59
2022/05/04 02:11:39;;;;;;;;;;;;;;;;;;5026570;28;19917;-59
2022/05/04 02:14:05;;;;;;;;;;;;;;;;;;5026263;28;20580;-59
2022/05/04 02:16:33;;;;;;;;;;;;;;;;;;5027924;28;19927;-59
2022/05/04 02:18:58;;;;;;;;;;;;;;;;;;5024059;28;19965;-59
2022/05/04 02:21:26;;;;;;;;;;;;;;;;;;5006609;28;19928;-58
2022/05/04 02:23:52;;;;;;;;;;;;;;;;;;5006436;28;19931;-59
2022/05/04 02:26:19;;;;;;;;;;;;;;;;;;5028620;28;19925;-59
2022/05/04 02:28:49;;;;;;;;;;;;;;;;;;5010074;28;20039;-59
2022/05/04 02:31:15;;;;;;;;;;;;;;;;;;5021412;28;20368;-58
2022/05/04 02:33:42;;;;;;;;;;;;;;;;;;5025923;28;19921;-60
2022/05/04 02:38:52;;;;;;;;;;;;;;;;;;5022873;28;19951;-59
2022/05/04 02:41:19;;;;;;;;;;;;;;;;;;5008452;28;19926;-59
2022/05/04 02:43:48;;;;;;;;;;;;;;;;;;5025535;28;20876;-59
2022/05/04 02:46:15;;;;;;;;;;;;;;;;;;5006806;28;20480;-58
2022/05/04 02:48:41;;;;;;;;;;;;;;;;;;5005105;28;19924;-59
2022/05/04 02:51:09;;;;;;;;;;;;;;;;;;5006660;28;19925;-59
2022/05/04 02:53:37;;;;;;;;;;;;;;;;;;5006633;28;19931;-58
2022/05/04 02:56:25;;;;;;;;;;;;;;;;;;5027054;28;19921;-59
2022/05/04 02:58:53;;;;;;;;;;;;;;;;;;5033794;28;19928;-59
2022/05/04 03:04:03;;;;;;;;;;;;;;;;;;5029070;28;19971;-59
2022/05/04 03:06:28;;;;;;;;;;;;;;;;;;5031595;28;20295;-59
2022/05/04 03:08:53;;;;;;;;;;;;;;;;;;5011202;28;19916;-59
2022/05/04 03:14:09;;;;;;;;;;;;;;;;;;5009257;28;21272;-59
2022/05/04 03:16:34;;;;;;;;;;;;;;;;;;5030378;28;20327;-57
2022/05/04 03:18:59;;;;;;;;;;;;;;;;;;4984761;28;19921;-58
2022/05/04 03:21:27;;;;;;;;;;;;;;;;;;5029581;28;20011;-58
2022/05/04 03:23:53;;;;;;;;;;;;;;;;;;5030818;28;19929;-57
2022/05/04 03:26:21;;;;;;;;;;;;;;;;;;5011410;28;19975;-58
2022/05/04 03:28:49;;;;;;;;;;;;;;;;;;5030588;28;19920;-58
2022/05/04 03:31:14;;;;;;;;;;;;;;;;;;5026816;28;19938;-58
2022/05/04 03:33:42;;;;;;;;;;;;;;;;;;5005232;28;21586;-58
2022/05/04 03:36:07;;;;;;;;;;;;;;;;;;5028276;28;19923;-58
2022/05/04 03:38:35;;;;;;;;;;;;;;;;;;5009283;28;19921;-58
2022/05/04 03:41:02;;;;;;;;;;;;;;;;;;4991334;28;20070;-57
2022/05/04 03:43:33;;;;;;;;;;;;;;;;;;5032045;28;19916;-58
2022/05/04 03:45:59;;;;;;;;;;;;;;;;;;5010140;28;19978;-57
2022/05/04 03:48:24;;;;;;;;;;;;;;;;;;5010090;28;20519;-58
2022/05/04 03:50:51;;;;;;;;;;;;;;;;;;5005423;28;19924;-58
2022/05/04 03:53:19;;;;;;;;;;;;;;;;;;5023325;28;19916;-61
2022/05/04 03:55:45;;;;;;;;;;;;;;;;;;5010073;28;19929;-58
2022/05/04 03:58:11;;;;;;;;;;;;;;;;;;5030494;28;19920;-59
2022/05/04 04:00:36;;;;;;;;;;;;;;;;;;4993996;28;20417;-59
2022/05/04 04:03:01;;;;;;;;;;;;;;;;;;5006108;28;20387;-59
2022/05/04 04:05:28;;;;;;;;;;;;;;;;;;5030300;28;20467;-59
2022/05/04 04:07:53;;;;;;;;;;;;;;;;;;5012226;28;19927;-59
2022/05/04 04:10:22;;;;;;;;;;;;;;;;;;5030465;28;21276;-59
2022/05/04 04:12:47;;;;;;;;;;;;;;;;;;5012372;28;19921;-58
2022/05/04 04:15:13;;;;;;;;;;;;;;;;;;5013397;28;20492;-59
2022/05/04 04:17:39;;;;;;;;;;;;;;;;;;5011936;28;19925;-58
2022/05/04 04:22:48;;;;;;;;;;;;;;;;;;5031761;28;19917;-58
2022/05/04 04:25:16;;;;;;;;;;;;;;;;;;5035890;28;19970;-59
2022/05/04 04:27:41;;;;;;;;;;;;;;;;;;5014947;28;20481;-59
2022/05/04 04:30:09;;;;;;;;;;;;;;;;;;5031540;28;19924;-58
2022/05/04 04:32:34;;;;;;;;;;;;;;;;;;4991016;28;19926;-59
2022/05/04 04:35:03;;;;;;;;;;;;;;;;;;5029422;28;19921;-59
2022/05/04 04:37:28;;;;;;;;;;;;;;;;;;5008548;28;20808;-59
2022/05/04 04:39:56;;;;;;;;;;;;;;;;;;4994473;28;19921;-59
2022/05/04 04:42:21;;;;;;;;;;;;;;;;;;5026813;28;20179;-59
2022/05/04 04:44:46;;;;;;;;;;;;;;;;;;5028186;28;19997;-59
2022/05/04 04:47:12;;;;;;;;;;;;;;;;;;5009372;28;20225;-59
2022/05/04 04:49:42;;;;;;;;;;;;;;;;;;5029447;28;19928;-59
2022/05/04 04:52:07;;;;;;;;;;;;;;;;;;5025610;28;19930;-59
2022/05/04 04:54:32;;;;;;;;;;;;;;;;;;5027917;28;19916;-59
2022/05/04 04:57:02;;;;;;;;;;;;;;;;;;5009816;28;20280;-59
2022/05/04 04:59:27;;;;;;;;;;;;;;;;;;5018748;28;19963;-58
2022/05/04 05:01:53;;;;;;;;;;;;;;;;;;5009655;28;20514;-58
2022/05/04 05:04:18;;;;;;;;;;;;;;;;;;5031381;28;19917;-59
2022/05/04 05:06:46;;;;;;;;;;;;;;;;;;5032442;28;20490;-59
2022/05/04 05:09:13;;;;;;;;;;;;;;;;;;5032454;28;19920;-59
2022/05/04 05:11:39;;;;;;;;;;;;;;;;;;5032012;28;19929;-60
2022/05/04 05:16:51;;;;;;;;;;;;;;;;;;5010572;28;19970;-60
2022/05/04 05:19:19;;;;;;;;;;;;;;;;;;5033688;28;19982;-59
2022/05/04 05:21:45;;;;;;;;;;;;;;;;;;5030033;28;19975;-58
2022/05/04 05:24:10;;;;;;;;;;;;;;;;;;5031163;28;19917;-58
2022/05/04 05:26:35;;;;;;;;;;;;;;;;;;5034898;28;20011;-58
2022/05/04 05:29:01;;;;;;;;;;;;;;;;;;5010152;28;19995;-58
2022/05/04 05:31:26;;;;;;;;;;;;;;;;;;5028741;28;19970;-57
2022/05/04 05:33:51;;;;;;;;;;;;;;;;;;4997525;28;19921;-58
2022/05/04 05:36:22;;;;;;;;;;;;;;;;;;5013130;28;19977;-58
2022/05/04 05:38:49;;;;;;;;;;;;;;;;;;5030366;28;19929;-58
2022/05/04 05:41:15;;;;;;;;;;;;;;;;;;4994063;28;20042;-58
2022/05/04 05:43:42;;;;;;;;;;;;;;;;;;5031550;28;19963;-59
2022/05/04 05:46:08;;;;;;;;;;;;;;;;;;4993854;28;19942;-58
2022/05/04 05:48:33;;;;;;;;;;;;;;;;;;5031423;28;19920;-58
2022/05/04 05:50:59;;;;;;;;;;;;;;;;;;5030565;28;19920;-58
2022/05/04 05:53:26;;;;;;;;;;;;;;;;;;5031630;28;21938;-59
2022/05/04 05:55:51;;;;;;;;;;;;;;;;;;5011854;28;19917;-59
2022/05/04 05:58:19;;;;;;;;;;;;;;;;;;5010762;28;19924;-59
2022/05/04 06:00:45;;;;;;;;;;;;;;;;;;5011396;28;19928;-59
2022/05/04 06:03:14;;;;;;;;;;;;;;;;;;5008455;28;19943;-59
2022/05/04 06:05:39;;;;;;;;;;;;;;;;;;5031070;28;19916;-57
2022/05/04 06:08:04;;;;;;;;;;;;;;;;;;5029695;28;19921;-58
2022/05/04 06:10:34;;;;;;;;;;;;;;;;;;5005023;28;20376;-58
2022/05/04 06:12:59;;;;;;;;;;;;;;;;;;5010023;28;20865;-58
2022/05/04 06:15:25;;;;;;;;;;;;;;;;;;4992079;28;20008;-58
2022/05/04 06:17:52;;;;;;;;;;;;;;;;;;5028809;28;19929;-59
2022/05/04 06:20:21;;;;;;;;;;;;;;;;;;5006008;28;19947;-58
2022/05/04 06:22:49;;;;;;;;;;;;;;;;;;5008911;28;19919;-58
2022/05/04 06:25:14;;;;;;;;;;;;;;;;;;5010546;28;19932;-58
2022/05/04 06:27:42;;;;;;;;;;;;;;;;;;5014561;28;19920;-58
2022/05/04 06:35:35;;;;;;;;;;;;;;;;;;5017317;28;19959;-59
2022/05/04 06:38:00;;;;;;;;;;;;;;;;;;5016434;28;19921;-58
2022/05/04 06:40:28;;;;;;;;;;;;;;;;;;5016020;28;19917;-58
2022/05/04 06:42:53;;;;;;;;;;;;;;;;;;5017998;28;20003;-58
2022/05/04 06:45:18;;;;;;;;;;;;;;;;;;5002013;28;20791;-58
2022/05/04 06:47:44;;;;;;;;;;;;;;;;;;5014382;28;19966;-57
2022/05/04 06:50:10;;;;;;;;;;;;;;;;;;5018395;28;20109;-59
2022/05/04 06:52:37;;;;;;;;;;;;;;;;;;5034395;28;20375;-57
2022/05/04 06:55:06;;;;;;;;;;;;;;;;;;5035185;28;20102;-58
2022/05/04 06:57:31;;;;;;;;;;;;;;;;;;5016889;28;19932;-58
2022/05/04 07:00:04;;;;;;;;;;;;;;;;;;5035350;28;19939;-59
2022/05/04 07:02:29;;;;;;;;;;;;;;;;;;5036118;28;19921;-59
2022/05/04 07:04:56;;;;;;;;;;;;;;;;;;5036460;28;19917;-59
2022/05/04 07:07:22;;;;;;;;;;;;;;;;;;5000419;28;19971;-59
2022/05/04 07:09:47;;;;;;;;;;;;;;;;;;5016296;28;19927;-59
2022/05/04 07:12:12;;;;;;;;;;;;;;;;;;5000469;28;20475;-59
2022/05/04 07:14:40;;;;;;;;;;;;;;;;;;5034840;28;19920;-58
2022/05/04 07:17:05;;;;;;;;;;;;;;;;;;5034510;28;19935;-58
2022/05/04 07:19:33;;;;;;;;;;;;;;;;;;5001066;28;21183;-57
2022/05/04 07:22:01;;;;;;;;;;;;;;;;;;5015328;28;19970;-58
2022/05/04 07:24:27;;;;;;;;;;;;;;;;;;5034827;28;19924;-58
2022/05/04 07:26:52;;;;;;;;;;;;;;;;;;5013432;28;19924;-58
2022/05/04 07:29:17;;;;;;;;;;;;;;;;;;5034501;28;19923;-58
2022/05/04 07:31:44;;;;;;;;;;;;;;;;;;4995994;28;19925;-58
2022/05/04 07:34:10;;;;;;;;;;;;;;;;;;5034572;28;19920;-58
2022/05/04 07:36:35;;;;;;;;;;;;;;;;;;5014729;28;20031;-58
2022/05/04 07:39:00;;;;;;;;;;;;;;;;;;5020634;28;20576;-58
2022/05/04 07:44:10;;;;;;;;;;;;;;;;;;5035635;28;20402;-59
2022/05/04 07:46:35;;;;;;;;;;;;;;;;;;5033023;28;19920;-58
2022/05/04 07:49:00;;;;;;;;;;;;;;;;;;5035862;28;19923;-59
2022/05/04 07:51:28;;;;;;;;;;;;;;;;;;5015944;28;20045;-58
2022/05/04 07:53:53;;;;;;;;;;;;;;;;;;5016387;28;19920;-58
2022/05/04 07:56:18;;;;;;;;;;;;;;;;;;5032037;28;19931;-59
2022/05/04 07:58:46;;;;;;;;;;;;;;;;;;5015883;28;19925;-59
2022/05/04 08:04:17;;;;;;;;;;;;;;;;;;5034364;28;19916;-58
2022/05/04 08:06:44;;;;;;;;;;;;;;;;;;5034725;28;19921;-59
2022/05/04 08:09:14;;;;;;;;;;;;;;;;;;5015977;28;20019;-59
2022/05/04 08:11:40;;;;;;;;;;;;;;;;;;4999911;28;19960;-59
2022/05/04 08:14:08;;;;;;;;;;;;;;;;;;5035359;28;20055;-59
2022/05/04 08:16:34;;;;;;;;;;;;;;;;;;5033549;28;19959;-59
2022/05/04 08:19:00;;;;;;;;;;;;;;;;;;5016822;28;20141;-59
2022/05/04 08:21:25;;;;;;;;;;;;;;;;;;5016993;28;20549;-59
2022/05/04 08:23:51;;;;;;;;;;;;;;;;;;5034623;28;19932;-59
2022/05/04 08:26:18;;;;;;;;;;;;;;;;;;5007215;28;20602;-58
2022/05/04 08:28:43;;;;;;;;;;;;;;;;;;5034498;28;19974;-58
2022/05/04 08:31:09;;;;;;;;;;;;;;;;;;5033636;28;19921;-59
2022/05/04 08:33:37;;;;;;;;;;;;;;;;;;5034640;28;20018;-58
2022/05/04 08:36:04;;;;;;;;;;;;;;;;;;4996968;28;19916;-59
2022/05/04 08:38:30;;;;;;;;;;;;;;;;;;5033493;28;20288;-58
2022/05/04 08:40:55;;;;;;;;;;;;;;;;;;5001307;28;19924;-58
2022/05/04 08:43:24;;;;;;;;;;;;;;;;;;5032185;28;19921;-58
2022/05/04 08:45:49;;;;;;;;;;;;;;;;;;5034411;28;19921;-59
2022/05/04 08:48:16;;;;;;;;;;;;;;;;;;5034064;28;20048;-59
2022/05/04 08:50:44;;;;;;;;;;;;;;;;;;5032942;28;20372;-59
2022/05/04 08:53:10;;;;;;;;;;;;;;;;;;5033274;28;19963;-59
2022/05/04 08:55:35;;;;;;;;;;;;;;;;;;4997463;28;19917;-59
2022/05/04 08:58:01;;;;;;;;;;;;;;;;;;5034558;28;21859;-59
2022/05/04 09:00:27;;;;;;;;;;;;;;;;;;5012156;28;20013;-59
2022/05/04 09:02:52;;;;;;;;;;;;;;;;;;5028627;28;19928;-59
2022/05/04 09:05:17;;;;;;;;;;;;;;;;;;5008190;28;19917;-59
2022/05/04 09:07:43;;;;;;;;;;;;;;;;;;5028806;28;19960;-58
2022/05/04 09:10:09;;;;;;;;;;;;;;;;;;5027943;28;23701;-59
2022/05/04 09:12:36;;;;;;;;;;;;;;;;;;5029118;28;19924;-58
2022/05/04 09:15:05;;;;;;;;;;;;;;;;;;5033157;28;22077;-58
2022/05/04 09:17:30;;;;;;;;;;;;;;;;;;5030176;28;19943;-58
2022/05/04 09:22:45;;;;;;;;;;;;;;;;;;5030535;28;19982;-60
2022/05/04 09:25:10;;;;;;;;;;;;;;;;;;5014239;28;22126;-60
2022/05/04 09:27:37;;;;;;;;;;;;;;;;;;5014006;28;20007;-61
2022/05/04 09:30:04;;;;;;;;;;;;;;;;;;5012786;28;20048;-58
2022/05/04 09:32:34;;;;;;;;;;;;;;;;;;5031459;28;19917;-58
2022/05/04 09:34:59;;;;;;;;;;;;;;;;;;5033727;28;20527;-59
2022/05/04 09:45:39;;;;;;;;;;;;;;;;;;5033561;28;19960;-59
2022/05/04 09:48:04;;;;;;;;;;;;;;;;;;5031692;28;20003;-58
2022/05/04 09:50:32;;;;;;;;;;;;;;;;;;5011475;28;19974;-59
2022/05/04 09:53:00;;;;;;;;;;;;;;;;;;5010359;28;19921;-59
2022/05/04 09:55:27;;;;;;;;;;;;;;;;;;5031352;28;20686;-60
2022/05/04 09:57:55;;;;;;;;;;;;;;;;;;5029465;28;19960;-60
2022/05/04 10:00:24;;;;;;;;;;;;;;;;;;5012568;28;19916;-60
2022/05/04 10:02:50;;;;;;;;;;;;;;;;;;5029942;28;19920;-59
2022/05/04 10:05:16;;;;;;;;;;;;;;;;;;5012140;28;19921;-60
2022/05/04 10:07:44;;;;;;;;;;;;;;;;;;5030387;28;19921;-60
2022/05/04 10:10:14;;;;;;;;;;;;;;;;;;5030363;28;19928;-60
2022/05/04 10:12:41;;;;;;;;;;;;;;;;;;4990146;28;20514;-60
2022/05/04 10:15:10;;;;;;;;;;;;;;;;;;5004508;28;19925;-59
2022/05/04 10:17:38;;;;;;;;;;;;;;;;;;5007683;28;19921;-60
2022/05/04 10:20:08;;;;;;;;;;;;;;;;;;5029725;28;19916;-60
2022/05/04 10:22:36;;;;;;;;;;;;;;;;;;5014687;28;20323;-59
2022/05/04 10:25:03;;;;;;;;;;;;;;;;;;5012711;28;19920;-61
2022/05/04 10:27:29;;;;;;;;;;;;;;;;;;5012616;28;19932;-60
2022/05/04 10:32:39;;;;;;;;;;;;;;;;;;5004226;28;19917;-60
2022/05/04 10:35:04;;;;;;;;;;;;;;;;;;5030316;28;20030;-59
2022/05/04 10:37:30;;;;;;;;;;;;;;;;;;5004239;28;19918;-60
2022/05/04 10:39:55;;;;;;;;;;;;;;;;;;5006210;28;20284;-60
2022/05/04 10:42:23;;;;;;;;;;;;;;;;;;5030026;28;19926;-60
2022/05/04 10:44:51;;;;;;;;;;;;;;;;;;5007778;28;20844;-58
2022/05/04 10:47:19;;;;;;;;;;;;;;;;;;5029733;28;19917;-59
2022/05/04 10:49:51;;;;;;;;;;;;;;;;;;5005884;28;20902;-59
2022/05/04 10:52:19;;;;;;;;;;;;;;;;;;5007307;28;19920;-60
2022/05/04 10:54:44;;;;;;;;;;;;;;;;;;5033191;28;19969;-59
2022/05/04 10:57:09;;;;;;;;;;;;;;;;;;5008697;28;19920;-60
2022/05/04 10:59:35;;;;;;;;;;;;;;;;;;5008679;28;19924;-59
2022/05/04 11:02:04;;;;;;;;;;;;;;;;;;5008284;28;19917;-60
2022/05/04 11:04:29;;;;;;;;;;;;;;;;;;4992416;28;19920;-59
2022/05/04 11:07:00;;;;;;;;;;;;;;;;;;5014875;28;19925;-60
2022/05/04 11:09:31;;;;;;;;;;;;;;;;;;5027775;28;19932;-60
2022/05/04 11:11:56;;;;;;;;;;;;;;;;;;5011076;28;20414;-60
2022/05/04 11:14:22;;;;;;;;;;;;;;;;;;5027721;28;19921;-61
2022/05/04 11:16:48;;;;;;;;;;;;;;;;;;4994215;28;19921;-61
2022/05/04 11:19:14;;;;;;;;;;;;;;;;;;5034809;28;19923;-58
2022/05/04 11:21:44;;;;;;;;;;;;;;;;;;5011815;28;19917;-60
2022/05/04 11:24:10;;;;;;;;;;;;;;;;;;5014487;28;19920;-60
2022/05/04 11:26:35;;;;;;;;;;;;;;;;;;5032500;28;19967;-61
2022/05/04 11:29:01;;;;;;;;;;;;;;;;;;5032526;28;19935;-62
2022/05/04 11:31:26;;;;;;;;;;;;;;;;;;5032331;28;20677;-61
2022/05/04 11:33:51;;;;;;;;;;;;;;;;;;5032249;28;20020;-60
2022/05/04 11:36:19;;;;;;;;;;;;;;;;;;5012199;28;19927;-60
2022/05/04 11:38:47;;;;;;;;;;;;;;;;;;4996279;28;19917;-60
2022/05/04 11:41:13;;;;;;;;;;;;;;;;;;5009858;28;20074;-61
2022/05/04 11:43:38;;;;;;;;;;;;;;;;;;5034072;28;20462;-61
2022/05/04 11:46:11;;;;;;;;;;;;;;;;;;5036295;28;19920;-60
2022/05/04 11:48:37;;;;;;;;;;;;;;;;;;5014900;28;19936;-60
2022/05/04 11:51:03;;;;;;;;;;;;;;;;;;5013181;28;19925;-60
2022/05/04 11:53:29;;;;;;;;;;;;;;;;;;5033147;28;19931;-60
2022/05/04 11:55:57;;;;;;;;;;;;;;;;;;5014470;28;20340;-60
2022/05/04 11:58:22;;;;;;;;;;;;;;;;;;5032515;28;21170;-60
2022/05/04 12:00:47;;;;;;;;;;;;;;;;;;5011607;28;20402;-60
2022/05/04 12:03:15;;;;;;;;;;;;;;;;;;5013370;28;19982;-60
2022/05/04 12:05:41;;;;;;;;;;;;;;;;;;5011884;28;19924;-60
2022/05/04 12:08:06;;;;;;;;;;;;;;;;;;5014328;28;19931;-61
2022/05/04 12:10:31;;;;;;;;;;;;;;;;;;5015233;28;19920;-61
2022/05/04 12:12:58;;;;;;;;;;;;;;;;;;5033462;28;19934;-61
2022/05/04 12:15:24;;;;;;;;;;;;;;;;;;4996915;28;19927;-60
2022/05/04 12:17:50;;;;;;;;;;;;;;;;;;5013945;28;19925;-60
2022/05/04 12:20:21;;;;;;;;;;;;;;;;;;4995117;28;20278;-61
2022/05/04 12:22:46;;;;;;;;;;;;;;;;;;5013078;28;19921;-61
2022/05/04 12:25:12;;;;;;;;;;;;;;;;;;5032027;28;19931;-61
2022/05/04 12:27:40;;;;;;;;;;;;;;;;;;5032964;28;19956;-61
2022/05/04 12:33:10;;;;;;;;;;;;;;;;;;5030529;28;19994;-60
2022/05/04 12:35:36;;;;;;;;;;;;;;;;;;5012203;28;21820;-61
2022/05/04 12:38:04;;;;;;;;;;;;;;;;;;5008401;28;19933;-63
2022/05/04 12:40:29;;;;;;;;;;;;;;;;;;5033240;28;19948;-62
2022/05/04 12:42:54;;;;;;;;;;;;;;;;;;5012597;28;19921;-62
2022/05/04 12:45:20;;;;;;;;;;;;;;;;;;5028286;28;20386;-61
2022/05/04 12:47:48;;;;;;;;;;;;;;;;;;5029847;28;21929;-64
2022/05/04 12:50:13;;;;;;;;;;;;;;;;;;5007461;28;19927;-61
2022/05/04 12:52:38;;;;;;;;;;;;;;;;;;5026919;28;21940;-61
2022/05/04 12:55:04;;;;;;;;;;;;;;;;;;5012787;28;19936;-61
2022/05/04 12:57:29;;;;;;;;;;;;;;;;;;4992308;28;19923;-60
2022/05/04 12:59:57;;;;;;;;;;;;;;;;;;5030537;28;19931;-61
2022/05/04 13:02:25;;;;;;;;;;;;;;;;;;5009614;28;20549;-61
2022/05/04 13:04:52;;;;;;;;;;;;;;;;;;5013819;28;19966;-61
2022/05/04 13:07:20;;;;;;;;;;;;;;;;;;4996000;28;20781;-61
2022/05/04 13:09:46;;;;;;;;;;;;;;;;;;5033606;28;19921;-61
2022/05/04 13:12:14;;;;;;;;;;;;;;;;;;5032388;28;19925;-61
2022/05/04 13:14:40;;;;;;;;;;;;;;;;;;5028272;28;19927;-61
2022/05/04 13:17:06;;;;;;;;;;;;;;;;;;5008425;28;19917;-59
2022/05/04 13:19:31;;;;;;;;;;;;;;;;;;4994672;28;20055;-60
2022/05/04 13:21:59;;;;;;;;;;;;;;;;;;5026439;28;19920;-60
2022/05/04 13:24:24;;;;;;;;;;;;;;;;;;5011791;28;20338;-60
2022/05/04 13:26:50;;;;;;;;;;;;;;;;;;5012014;28;19927;-60
2022/05/04 13:29:15;;;;;;;;;;;;;;;;;;5032212;28;19917;-60
2022/05/04 13:31:40;;;;;;;;;;;;;;;;;;5032001;28;19928;-60
2022/05/04 13:34:05;;;;;;;;;;;;;;;;;;5031991;28;19916;-60
2022/05/04 13:36:33;;;;;;;;;;;;;;;;;;4995065;28;19924;-60
2022/05/04 13:38:59;;;;;;;;;;;;;;;;;;5025328;28;19929;-60
2022/05/04 13:41:25;;;;;;;;;;;;;;;;;;5009764;28;20406;-61
2022/05/04 13:43:50;;;;;;;;;;;;;;;;;;4993544;28;20504;-60
2022/05/04 13:46:18;;;;;;;;;;;;;;;;;;4994119;28;19931;-61
2022/05/04 13:48:48;;;;;;;;;;;;;;;;;;5007923;28;20415;-61
2022/05/04 13:53:57;;;;;;;;;;;;;;;;;;5029607;28;19921;-61
2022/05/04 13:56:23;;;;;;;;;;;;;;;;;;5030932;28;19986;-61
2022/05/04 13:58:48;;;;;;;;;;;;;;;;;;5012270;28;19925;-61
2022/05/04 14:01:14;;;;;;;;;;;;;;;;;;5013685;28;19925;-61
2022/05/04 14:03:40;;;;;;;;;;;;;;;;;;5031769;28;19917;-61
2022/05/04 14:06:06;;;;;;;;;;;;;;;;;;5034117;28;21896;-61
2022/05/04 14:08:36;;;;;;;;;;;;;;;;;;5030811;28;20262;-61
2022/05/04 14:11:03;;;;;;;;;;;;;;;;;;5033092;28;19925;-61
2022/05/04 14:13:29;;;;;;;;;;;;;;;;;;5026667;28;19947;-61
2022/05/04 14:15:56;;;;;;;;;;;;;;;;;;5032595;28;19921;-61
2022/05/04 14:18:24;;;;;;;;;;;;;;;;;;5009181;28;19935;-61
2022/05/04 14:20:52;;;;;;;;;;;;;;;;;;5032498;28;19925;-61
2022/05/04 14:23:17;;;;;;;;;;;;;;;;;;5010600;28;20455;-61
2022/05/04 14:25:42;;;;;;;;;;;;;;;;;;5013638;28;19928;-61
2022/05/04 14:28:08;;;;;;;;;;;;;;;;;;5033054;28;19939;-61
2022/05/04 14:30:34;;;;;;;;;;;;;;;;;;5004585;28;19971;-61
2022/05/04 14:33:02;;;;;;;;;;;;;;;;;;5033489;28;19921;-60
2022/05/04 14:35:27;;;;;;;;;;;;;;;;;;5031559;28;20861;-60
2022/05/04 14:37:53;;;;;;;;;;;;;;;;;;5010898;28;19920;-60
2022/05/04 14:40:21;;;;;;;;;;;;;;;;;;5012165;28;19929;-61
2022/05/04 14:42:47;;;;;;;;;;;;;;;;;;4995739;28;19921;-61
2022/05/04 14:45:12;;;;;;;;;;;;;;;;;;4994146;28;20482;-61
2022/05/04 14:47:40;;;;;;;;;;;;;;;;;;5031851;28;20007;-61
2022/05/04 14:50:06;;;;;;;;;;;;;;;;;;5031122;28;19943;-61
2022/05/04 14:52:31;;;;;;;;;;;;;;;;;;4997229;28;19946;-60
2022/05/04 14:54:57;;;;;;;;;;;;;;;;;;5016241;28;20015;-61
2022/05/04 14:57:25;;;;;;;;;;;;;;;;;;5014543;28;19924;-61
2022/05/04 14:59:50;;;;;;;;;;;;;;;;;;5015870;28;19933;-60
2022/05/04 15:02:16;;;;;;;;;;;;;;;;;;5034110;28;20018;-60
2022/05/04 15:07:26;;;;;;;;;;;;;;;;;;5034232;28;21893;-60
2022/05/04 15:09:51;;;;;;;;;;;;;;;;;;5034227;28;20020;-60
2022/05/04 15:12:16;;;;;;;;;;;;;;;;;;5035728;28;19982;-61
2022/05/04 15:14:41;;;;;;;;;;;;;;;;;;4998740;28;19951;-60
2022/05/04 15:17:07;;;;;;;;;;;;;;;;;;5033298;28;19916;-61
2022/05/04 15:19:34;;;;;;;;;;;;;;;;;;5035886;28;20002;-60
2022/05/04 15:21:59;;;;;;;;;;;;;;;;;;5011919;28;19982;-60
2022/05/04 15:24:27;;;;;;;;;;;;;;;;;;5013249;28;19912;-60
2022/05/04 15:26:57;;;;;;;;;;;;;;;;;;5032024;28;20011;-60
2022/05/04 15:29:23;;;;;;;;;;;;;;;;;;5013848;28;19924;-60
2022/05/04 15:31:51;;;;;;;;;;;;;;;;;;5031479;28;19939;-60
2022/05/04 15:34:17;;;;;;;;;;;;;;;;;;5013774;28;19924;-60
2022/05/04 15:36:44;;;;;;;;;;;;;;;;;;5033930;28;19978;-59
2022/05/04 15:39:10;;;;;;;;;;;;;;;;;;4997313;28;20383;-59
2022/05/04 15:41:38;;;;;;;;;;;;;;;;;;5035403;28;20350;-60
2022/05/04 15:44:03;;;;;;;;;;;;;;;;;;5035720;28;20003;-60
2022/05/04 15:46:30;;;;;;;;;;;;;;;;;;4996411;28;19921;-59
2022/05/04 15:48:55;;;;;;;;;;;;;;;;;;5012297;28;19935;-60
2022/05/04 15:51:21;;;;;;;;;;;;;;;;;;5012657;28;19921;-59
2022/05/04 15:53:48;;;;;;;;;;;;;;;;;;4998791;28;20574;-59
2022/05/04 15:56:16;;;;;;;;;;;;;;;;;;5034279;28;19920;-60
2022/05/04 15:58:41;;;;;;;;;;;;;;;;;;5007018;28;19917;-59
2022/05/04 16:01:09;;;;;;;;;;;;;;;;;;5028513;28;20656;-61
2022/05/04 16:06:21;;;;;;;;;;;;;;;;;;5032302;28;19924;-60
2022/05/04 16:08:49;;;;;;;;;;;;;;;;;;5006100;28;19933;-59
2022/05/04 16:11:14;;;;;;;;;;;;;;;;;;5008559;28;19920;-60
2022/05/04 16:13:39;;;;;;;;;;;;;;;;;;5010388;28;21901;-59
2022/05/04 16:16:05;;;;;;;;;;;;;;;;;;4990345;28;20035;-60
2022/05/04 16:23:58;;;;;;;;;;;;;;;;;;5028869;28;19935;-59
2022/05/04 16:26:24;;;;;;;;;;;;;;;;;;5030963;28;19917;-59
2022/05/04 16:28:52;;;;;;;;;;;;;;;;;;5012424;28;19935;-59
2022/05/04 16:31:17;;;;;;;;;;;;;;;;;;5028872;28;20446;-59
2022/05/04 16:33:43;;;;;;;;;;;;;;;;;;5008687;28;19921;-59
2022/05/04 16:36:10;;;;;;;;;;;;;;;;;;5008921;28;19925;-59
2022/05/04 16:38:35;;;;;;;;;;;;;;;;;;5027801;28;20307;-60
2022/05/04 16:41:01;;;;;;;;;;;;;;;;;;5029580;28;19921;-59
2022/05/04 16:43:28;;;;;;;;;;;;;;;;;;4990082;28;19920;-59
2022/05/04 16:45:56;;;;;;;;;;;;;;;;;;5002867;28;20022;-59
2022/05/04 16:48:24;;;;;;;;;;;;;;;;;;5004799;28;19928;-60
2022/05/04 16:50:52;;;;;;;;;;;;;;;;;;5024933;28;19920;-60
2022/05/04 16:53:17;;;;;;;;;;;;;;;;;;5005443;28;19925;-59
2022/05/04 16:55:42;;;;;;;;;;;;;;;;;;5021953;28;19923;-59
2022/05/04 16:58:08;;;;;;;;;;;;;;;;;;5027965;28;19960;-60
2022/05/04 17:00:34;;;;;;;;;;;;;;;;;;5031344;28;19927;-59
2022/05/04 17:02:59;;;;;;;;;;;;;;;;;;5021551;28;19925;-60
2022/05/04 17:05:28;;;;;;;;;;;;;;;;;;5005020;28;19917;-60
2022/05/04 17:07:56;;;;;;;;;;;;;;;;;;5023298;28;20073;-60
2022/05/04 17:10:21;;;;;;;;;;;;;;;;;;4985975;28;22528;-60
2022/05/04 17:12:47;;;;;;;;;;;;;;;;;;4997260;28;20816;-59
2022/05/04 17:15:14;;;;;;;;;;;;;;;;;;5026195;28;20176;-60
2022/05/04 17:17:42;;;;;;;;;;;;;;;;;;5022966;28;20539;-60
2022/05/04 17:20:08;;;;;;;;;;;;;;;;;;5026059;28;20504;-59
2022/05/04 17:22:36;;;;;;;;;;;;;;;;;;5009667;28;20552;-59
2022/05/04 17:25:06;;;;;;;;;;;;;;;;;;5009916;28;19925;-60
2022/05/04 17:27:33;;;;;;;;;;;;;;;;;;5019026;28;19921;-59
2022/05/04 17:29:59;;;;;;;;;;;;;;;;;;5028119;28;19931;-59
2022/05/04 17:37:52;;;;;;;;;;;;;;;;;;5021389;28;19921;-58
2022/05/04 17:40:18;;;;;;;;;;;;;;;;;;5005022;28;21821;-59
2022/05/04 17:42:47;;;;;;;;;;;;;;;;;;5006704;28;19921;-59
2022/05/04 17:45:15;;;;;;;;;;;;;;;;;;5003789;28;19925;-59